sensor_id;sensor_type;location;lat;lon;timestamp;temperature;humidity
80230;DHT22;69540;42.136;24.742;2023-10-19T00:00:19;24.10;30.70
80230;DHT22;69540;42.136;24.742;2023-10-19T00:02:49;24.10;30.70
80230;DHT22;69540;42.136;24.742;2023-10-19T00:05:17;24.10;30.60
80230;DHT22;69540;42.136;24.742;2023-10-19T00:07:43;24.10;30.60
80230;DHT22;69540;42.136;24.742;2023-10-19T00:10:09;24.10;30.60
80230;DHT22;69540;42.136;24.742;2023-10-19T00:12:36;24.10;30.70
80230;DHT22;69540;42.136;24.742;2023-10-19T00:15:03;24.10;30.60
80230;DHT22;69540;42.136;24.742;2023-10-19T00:17:29;24.10;30.60
80230;DHT22;69540;42.136;24.742;2023-10-19T00:19:55;24.10;30.60
80230;DHT22;69540;42.136;24.742;2023-10-19T00:23:00;24.10;30.60
80230;DHT22;69540;42.136;24.742;2023-10-19T00:25:28;24.00;30.60
80230;DHT22;69540;42.136;24.742;2023-10-19T00:27:54;24.00;30.60
80230;DHT22;69540;42.136;24.742;2023-10-19T00:30:20;24.10;30.60
80230;DHT22;69540;42.136;24.742;2023-10-19T00:32:49;24.10;30.60
80230;DHT22;69540;42.136;24.742;2023-10-19T00:35:16;24.10;30.60
80230;DHT22;69540;42.136;24.742;2023-10-19T00:38:00;24.10;30.60
80230;DHT22;69540;42.136;24.742;2023-10-19T00:40:50;24.10;30.50
80230;DHT22;69540;42.136;24.742;2023-10-19T00:43:31;24.10;30.50
80230;DHT22;69540;42.136;24.742;2023-10-19T00:46:04;24.10;30.50
80230;DHT22;69540;42.136;24.742;2023-10-19T00:48:57;24.00;30.60
80230;DHT22;69540;42.136;24.742;2023-10-19T00:51:35;24.10;30.50
80230;DHT22;69540;42.136;24.742;2023-10-19T00:54:16;24.10;30.50
80230;DHT22;69540;42.136;24.742;2023-10-19T00:56:47;24.00;30.50
80230;DHT22;69540;42.136;24.742;2023-10-19T00:59:22;24.10;30.60
80230;DHT22;69540;42.136;24.742;2023-10-19T01:01:52;24.00;30.50
80230;DHT22;69540;42.136;24.742;2023-10-19T01:04:28;24.00;30.50
80230;DHT22;69540;42.136;24.742;2023-10-19T01:07:00;24.00;30.50
80230;DHT22;69540;42.136;24.742;2023-10-19T01:09:44;24.00;30.50
80230;DHT22;69540;42.136;24.742;2023-10-19T01:12:11;24.10;30.50
80230;DHT22;69540;42.136;24.742;2023-10-19T01:17:32;24.00;30.40
80230;DHT22;69540;42.136;24.742;2023-10-19T01:20:05;24.00;30.40
80230;DHT22;69540;42.136;24.742;2023-10-19T01:22:47;24.00;30.40
80230;DHT22;69540;42.136;24.742;2023-10-19T01:25:13;24.00;30.50
80230;DHT22;69540;42.136;24.742;2023-10-19T01:27:45;24.10;30.50
80230;DHT22;69540;42.136;24.742;2023-10-19T01:30:12;24.00;30.40
80230;DHT22;69540;42.136;24.742;2023-10-19T01:32:40;24.00;30.50
80230;DHT22;69540;42.136;24.742;2023-10-19T01:35:08;24.00;30.40
80230;DHT22;69540;42.136;24.742;2023-10-19T01:37:33;24.00;30.40
80230;DHT22;69540;42.136;24.742;2023-10-19T01:40:03;24.00;30.40
80230;DHT22;69540;42.136;24.742;2023-10-19T01:42:30;24.00;30.40
80230;DHT22;69540;42.136;24.742;2023-10-19T01:44:56;24.10;30.50
80230;DHT22;69540;42.136;24.742;2023-10-19T01:47:22;24.00;30.40
80230;DHT22;69540;42.136;24.742;2023-10-19T01:49:48;24.10;30.40
80230;DHT22;69540;42.136;24.742;2023-10-19T01:52:18;24.10;30.40
80230;DHT22;69540;42.136;24.742;2023-10-19T01:54:43;24.00;30.40
80230;DHT22;69540;42.136;24.742;2023-10-19T01:57:09;24.00;30.40
80230;DHT22;69540;42.136;24.742;2023-10-19T01:59:35;24.00;30.30
80230;DHT22;69540;42.136;24.742;2023-10-19T02:02:01;24.00;30.30
80230;DHT22;69540;42.136;24.742;2023-10-19T02:04:28;24.00;30.40
80230;DHT22;69540;42.136;24.742;2023-10-19T02:06:53;24.10;30.40
80230;DHT22;69540;42.136;24.742;2023-10-19T02:09:21;24.00;30.30
80230;DHT22;69540;42.136;24.742;2023-10-19T02:11:50;24.00;30.30
80230;DHT22;69540;42.136;24.742;2023-10-19T02:14:18;24.10;30.40
80230;DHT22;69540;42.136;24.742;2023-10-19T02:16:47;24.00;30.40
80230;DHT22;69540;42.136;24.742;2023-10-19T02:19:13;24.00;30.30
80230;DHT22;69540;42.136;24.742;2023-10-19T02:21:39;24.00;30.30
80230;DHT22;69540;42.136;24.742;2023-10-19T02:24:09;24.00;30.30
80230;DHT22;69540;42.136;24.742;2023-10-19T02:26:40;24.00;30.40
80230;DHT22;69540;42.136;24.742;2023-10-19T02:29:06;24.00;30.30
80230;DHT22;69540;42.136;24.742;2023-10-19T02:31:40;24.00;30.30
80230;DHT22;69540;42.136;24.742;2023-10-19T02:34:07;24.00;30.30
80230;DHT22;69540;42.136;24.742;2023-10-19T02:36:34;24.00;30.30
80230;DHT22;69540;42.136;24.742;2023-10-19T02:39:04;24.00;30.30
80230;DHT22;69540;42.136;24.742;2023-10-19T02:41:36;24.00;30.30
80230;DHT22;69540;42.136;24.742;2023-10-19T02:44:14;24.00;30.30
80230;DHT22;69540;42.136;24.742;2023-10-19T02:46:43;24.00;30.20
80230;DHT22;69540;42.136;24.742;2023-10-19T02:49:11;24.00;30.30
80230;DHT22;69540;42.136;24.742;2023-10-19T02:51:41;24.00;31.40
80230;DHT22;69540;42.136;24.742;2023-10-19T02:54:10;24.00;30.30
80230;DHT22;69540;42.136;24.742;2023-10-19T02:56:43;24.00;30.30
80230;DHT22;69540;42.136;24.742;2023-10-19T02:59:09;24.00;30.30
80230;DHT22;69540;42.136;24.742;2023-10-19T03:01:36;24.00;30.30
80230;DHT22;69540;42.136;24.742;2023-10-19T03:04:02;24.00;30.30
80230;DHT22;69540;42.136;24.742;2023-10-19T03:06:30;24.00;30.20
80230;DHT22;69540;42.136;24.742;2023-10-19T03:09:00;24.00;30.20
80230;DHT22;69540;42.136;24.742;2023-10-19T03:11:42;24.00;30.20
80230;DHT22;69540;42.136;24.742;2023-10-19T03:14:08;24.00;30.20
80230;DHT22;69540;42.136;24.742;2023-10-19T03:16:36;24.00;30.20
80230;DHT22;69540;42.136;24.742;2023-10-19T03:19:02;24.00;30.20
80230;DHT22;69540;42.136;24.742;2023-10-19T03:21:30;24.00;30.20
80230;DHT22;69540;42.136;24.742;2023-10-19T03:23:59;24.00;30.20
80230;DHT22;69540;42.136;24.742;2023-10-19T03:26:30;24.00;30.20
80230;DHT22;69540;42.136;24.742;2023-10-19T03:28:57;24.00;30.20
80230;DHT22;69540;42.136;24.742;2023-10-19T03:31:28;24.00;30.30
80230;DHT22;69540;42.136;24.742;2023-10-19T03:33:54;24.00;30.20
80230;DHT22;69540;42.136;24.742;2023-10-19T03:36:22;24.00;30.20
80230;DHT22;69540;42.136;24.742;2023-10-19T03:38:48;24.00;30.20
80230;DHT22;69540;42.136;24.742;2023-10-19T03:41:17;24.00;30.20
80230;DHT22;69540;42.136;24.742;2023-10-19T03:43:47;24.00;30.20
80230;DHT22;69540;42.136;24.742;2023-10-19T03:46:14;24.00;30.30
80230;DHT22;69540;42.136;24.742;2023-10-19T03:48:47;24.00;30.20
80230;DHT22;69540;42.136;24.742;2023-10-19T03:51:13;24.00;30.30
80230;DHT22;69540;42.136;24.742;2023-10-19T03:53:40;24.00;30.20
80230;DHT22;69540;42.136;24.742;2023-10-19T03:56:13;24.00;30.30
80230;DHT22;69540;42.136;24.742;2023-10-19T03:58:38;24.00;30.20
80230;DHT22;69540;42.136;24.742;2023-10-19T04:01:06;23.90;30.00
80230;DHT22;69540;42.136;24.742;2023-10-19T04:03:32;23.90;30.20
80230;DHT22;69540;42.136;24.742;2023-10-19T04:06:00;23.90;30.30
80230;DHT22;69540;42.136;24.742;2023-10-19T04:08:26;23.80;30.20
80230;DHT22;69540;42.136;24.742;2023-10-19T04:10:52;23.80;30.10
80230;DHT22;69540;42.136;24.742;2023-10-19T04:13:38;23.80;30.20
80230;DHT22;69540;42.136;24.742;2023-10-19T04:16:04;23.70;30.20
80230;DHT22;69540;42.136;24.742;2023-10-19T04:18:35;23.70;30.20
80230;DHT22;69540;42.136;24.742;2023-10-19T04:21:08;23.70;30.30
80230;DHT22;69540;42.136;24.742;2023-10-19T04:23:34;23.60;30.30
80230;DHT22;69540;42.136;24.742;2023-10-19T04:26:00;23.60;30.30
80230;DHT22;69540;42.136;24.742;2023-10-19T04:28:31;23.60;30.30
80230;DHT22;69540;42.136;24.742;2023-10-19T04:31:03;23.60;30.30
80230;DHT22;69540;42.136;24.742;2023-10-19T04:33:31;23.50;30.40
80230;DHT22;69540;42.136;24.742;2023-10-19T04:35:57;23.50;30.40
80230;DHT22;69540;42.136;24.742;2023-10-19T04:38:29;23.50;30.50
80230;DHT22;69540;42.136;24.742;2023-10-19T04:41:04;23.50;30.40
80230;DHT22;69540;42.136;24.742;2023-10-19T04:43:33;23.50;30.70
80230;DHT22;69540;42.136;24.742;2023-10-19T04:45:58;23.50;30.80
80230;DHT22;69540;42.136;24.742;2023-10-19T04:48:24;23.40;30.70
80230;DHT22;69540;42.136;24.742;2023-10-19T04:50:50;23.40;30.60
80230;DHT22;69540;42.136;24.742;2023-10-19T04:53:15;23.40;30.60
80230;DHT22;69540;42.136;24.742;2023-10-19T04:55:42;23.40;30.60
80230;DHT22;69540;42.136;24.742;2023-10-19T04:58:10;23.30;30.90
80230;DHT22;69540;42.136;24.742;2023-10-19T05:00:36;23.30;31.00
80230;DHT22;69540;42.136;24.742;2023-10-19T05:03:01;23.30;31.10
80230;DHT22;69540;42.136;24.742;2023-10-19T05:05:27;23.20;31.20
80230;DHT22;69540;42.136;24.742;2023-10-19T05:07:53;23.20;31.20
80230;DHT22;69540;42.136;24.742;2023-10-19T05:10:19;23.20;30.80
80230;DHT22;69540;42.136;24.742;2023-10-19T05:12:45;23.20;30.70
80230;DHT22;69540;42.136;24.742;2023-10-19T05:15:11;23.20;31.00
80230;DHT22;69540;42.136;24.742;2023-10-19T05:17:36;23.20;30.90
80230;DHT22;69540;42.136;24.742;2023-10-19T05:20:02;23.20;31.40
80230;DHT22;69540;42.136;24.742;2023-10-19T05:22:30;23.20;31.80
80230;DHT22;69540;42.136;24.742;2023-10-19T05:24:58;23.20;32.30
80230;DHT22;69540;42.136;24.742;2023-10-19T05:27:23;23.20;32.60
80230;DHT22;69540;42.136;24.742;2023-10-19T05:29:49;23.30;32.60
80230;DHT22;69540;42.136;24.742;2023-10-19T05:32:16;23.30;32.60
80230;DHT22;69540;42.136;24.742;2023-10-19T05:34:42;23.30;32.40
80230;DHT22;69540;42.136;24.742;2023-10-19T05:37:07;23.40;32.40
80230;DHT22;69540;42.136;24.742;2023-10-19T05:39:34;23.40;32.40
80230;DHT22;69540;42.136;24.742;2023-10-19T05:42:01;23.40;32.30
80230;DHT22;69540;42.136;24.742;2023-10-19T05:44:31;23.40;32.50
80230;DHT22;69540;42.136;24.742;2023-10-19T05:46:57;23.50;32.40
80230;DHT22;69540;42.136;24.742;2023-10-19T05:49:23;23.50;32.60
80230;DHT22;69540;42.136;24.742;2023-10-19T05:51:50;23.50;32.40
80230;DHT22;69540;42.136;24.742;2023-10-19T05:54:16;23.50;32.20
80230;DHT22;69540;42.136;24.742;2023-10-19T05:56:42;23.50;32.10
80230;DHT22;69540;42.136;24.742;2023-10-19T05:59:08;23.60;32.30
80230;DHT22;69540;42.136;24.742;2023-10-19T06:01:36;23.50;32.20
80230;DHT22;69540;42.136;24.742;2023-10-19T06:04:03;23.60;32.40
80230;DHT22;69540;42.136;24.742;2023-10-19T06:06:28;23.60;32.20
80230;DHT22;69540;42.136;24.742;2023-10-19T06:08:55;23.60;32.20
80230;DHT22;69540;42.136;24.742;2023-10-19T06:11:21;23.60;32.20
80230;DHT22;69540;42.136;24.742;2023-10-19T06:13:47;23.70;32.30
80230;DHT22;69540;42.136;24.742;2023-10-19T06:16:13;23.70;32.40
80230;DHT22;69540;42.136;24.742;2023-10-19T06:18:39;23.70;32.40
80230;DHT22;69540;42.136;24.742;2023-10-19T06:21:05;23.70;32.50
80230;DHT22;69540;42.136;24.742;2023-10-19T06:23:31;23.80;32.50
80230;DHT22;69540;42.136;24.742;2023-10-19T06:25:57;23.70;32.30
80230;DHT22;69540;42.136;24.742;2023-10-19T06:28:23;23.80;32.30
80230;DHT22;69540;42.136;24.742;2023-10-19T06:30:48;23.80;32.10
80230;DHT22;69540;42.136;24.742;2023-10-19T06:33:15;23.80;32.10
80230;DHT22;69540;42.136;24.742;2023-10-19T06:35:41;23.80;32.20
80230;DHT22;69540;42.136;24.742;2023-10-19T06:38:07;23.80;32.20
80230;DHT22;69540;42.136;24.742;2023-10-19T06:40:35;23.80;32.30
80230;DHT22;69540;42.136;24.742;2023-10-19T06:43:04;23.80;32.20
80230;DHT22;69540;42.136;24.742;2023-10-19T06:45:31;23.80;32.10
80230;DHT22;69540;42.136;24.742;2023-10-19T06:47:57;23.80;32.10
80230;DHT22;69540;42.136;24.742;2023-10-19T06:50:24;23.90;32.10
80230;DHT22;69540;42.136;24.742;2023-10-19T06:52:51;23.80;32.00
80230;DHT22;69540;42.136;24.742;2023-10-19T06:55:18;23.80;32.10
80230;DHT22;69540;42.136;24.742;2023-10-19T06:57:50;23.90;32.00
80230;DHT22;69540;42.136;24.742;2023-10-19T07:00:18;23.90;32.00
80230;DHT22;69540;42.136;24.742;2023-10-19T07:02:46;23.90;32.00
80230;DHT22;69540;42.136;24.742;2023-10-19T07:05:13;23.90;31.90
80230;DHT22;69540;42.136;24.742;2023-10-19T07:07:47;23.90;31.90
80230;DHT22;69540;42.136;24.742;2023-10-19T07:10:14;23.90;32.00
80230;DHT22;69540;42.136;24.742;2023-10-19T07:12:45;23.90;32.00
80230;DHT22;69540;42.136;24.742;2023-10-19T07:15:13;23.90;31.90
80230;DHT22;69540;42.136;24.742;2023-10-19T07:17:45;24.00;31.90
80230;DHT22;69540;42.136;24.742;2023-10-19T07:20:12;24.00;32.00
80230;DHT22;69540;42.136;24.742;2023-10-19T07:22:51;24.00;31.90
80230;DHT22;69540;42.136;24.742;2023-10-19T07:25:17;24.00;31.80
80230;DHT22;69540;42.136;24.742;2023-10-19T07:27:51;24.00;32.00
80230;DHT22;69540;42.136;24.742;2023-10-19T07:30:18;24.00;32.10
80230;DHT22;69540;42.136;24.742;2023-10-19T07:32:52;24.00;32.10
80230;DHT22;69540;42.136;24.742;2023-10-19T07:35:24;24.00;32.10
80230;DHT22;69540;42.136;24.742;2023-10-19T07:37:51;24.00;31.90
80230;DHT22;69540;42.136;24.742;2023-10-19T07:40:18;24.00;31.90
80230;DHT22;69540;42.136;24.742;2023-10-19T07:42:47;24.00;31.80
80230;DHT22;69540;42.136;24.742;2023-10-19T07:45:14;24.00;31.90
80230;DHT22;69540;42.136;24.742;2023-10-19T07:47:41;24.00;31.80
80230;DHT22;69540;42.136;24.742;2023-10-19T07:50:11;24.00;31.80
80230;DHT22;69540;42.136;24.742;2023-10-19T07:52:43;24.00;31.80
80230;DHT22;69540;42.136;24.742;2023-10-19T07:55:10;24.00;31.70
80230;DHT22;69540;42.136;24.742;2023-10-19T07:57:36;24.00;31.80
80230;DHT22;69540;42.136;24.742;2023-10-19T08:00:02;24.00;31.90
80230;DHT22;69540;42.136;24.742;2023-10-19T08:02:29;24.00;31.80
80230;DHT22;69540;42.136;24.742;2023-10-19T08:04:55;24.10;32.10
80230;DHT22;69540;42.136;24.742;2023-10-19T08:07:21;24.00;32.10
80230;DHT22;69540;42.136;24.742;2023-10-19T08:09:47;24.10;32.10
80230;DHT22;69540;42.136;24.742;2023-10-19T08:12:13;24.10;32.10
80230;DHT22;69540;42.136;24.742;2023-10-19T08:14:39;24.10;32.10
80230;DHT22;69540;42.136;24.742;2023-10-19T08:17:05;24.10;32.10
80230;DHT22;69540;42.136;24.742;2023-10-19T08:19:34;24.10;32.10
80230;DHT22;69540;42.136;24.742;2023-10-19T08:22:00;24.10;32.10
80230;DHT22;69540;42.136;24.742;2023-10-19T08:24:25;24.10;32.00
80230;DHT22;69540;42.136;24.742;2023-10-19T08:26:54;24.10;32.00
80230;DHT22;69540;42.136;24.742;2023-10-19T08:29:20;24.10;32.10
80230;DHT22;69540;42.136;24.742;2023-10-19T08:31:46;24.10;32.00
80230;DHT22;69540;42.136;24.742;2023-10-19T08:34:12;24.10;32.00
80230;DHT22;69540;42.136;24.742;2023-10-19T08:36:38;24.10;32.20
80230;DHT22;69540;42.136;24.742;2023-10-19T08:39:05;24.10;32.10
80230;DHT22;69540;42.136;24.742;2023-10-19T08:41:33;24.10;32.00
80230;DHT22;69540;42.136;24.742;2023-10-19T08:44:03;24.10;32.00
80230;DHT22;69540;42.136;24.742;2023-10-19T08:46:29;24.10;32.00
80230;DHT22;69540;42.136;24.742;2023-10-19T08:48:58;24.10;32.00
80230;DHT22;69540;42.136;24.742;2023-10-19T08:51:25;24.10;31.90
80230;DHT22;69540;42.136;24.742;2023-10-19T08:53:53;24.20;32.00
80230;DHT22;69540;42.136;24.742;2023-10-19T08:56:19;24.20;32.10
80230;DHT22;69540;42.136;24.742;2023-10-19T08:58:50;24.20;32.20
80230;DHT22;69540;42.136;24.742;2023-10-19T09:01:18;24.20;32.10
80230;DHT22;69540;42.136;24.742;2023-10-19T09:03:45;24.20;32.10
80230;DHT22;69540;42.136;24.742;2023-10-19T09:06:13;24.20;32.20
80230;DHT22;69540;42.136;24.742;2023-10-19T09:08:40;24.20;32.10
80230;DHT22;69540;42.136;24.742;2023-10-19T09:11:10;24.20;32.10
80230;DHT22;69540;42.136;24.742;2023-10-19T09:13:49;24.20;32.10
80230;DHT22;69540;42.136;24.742;2023-10-19T09:16:22;24.20;32.10
80230;DHT22;69540;42.136;24.742;2023-10-19T09:18:49;24.20;32.10
80230;DHT22;69540;42.136;24.742;2023-10-19T09:21:17;24.20;32.10
80230;DHT22;69540;42.136;24.742;2023-10-19T09:23:57;24.20;32.00
80230;DHT22;69540;42.136;24.742;2023-10-19T09:26:24;24.20;32.00
80230;DHT22;69540;42.136;24.742;2023-10-19T09:28:52;24.20;32.00
80230;DHT22;69540;42.136;24.742;2023-10-19T09:31:18;24.20;32.10
80230;DHT22;69540;42.136;24.742;2023-10-19T09:33:47;24.20;32.10
80230;DHT22;69540;42.136;24.742;2023-10-19T09:36:14;24.20;32.10
80230;DHT22;69540;42.136;24.742;2023-10-19T09:38:44;24.20;32.10
80230;DHT22;69540;42.136;24.742;2023-10-19T09:41:12;24.20;32.10
80230;DHT22;69540;42.136;24.742;2023-10-19T09:43:48;24.20;32.10
80230;DHT22;69540;42.136;24.742;2023-10-19T09:46:29;24.20;32.10
80230;DHT22;69540;42.136;24.742;2023-10-19T09:48:56;24.20;32.10
80230;DHT22;69540;42.136;24.742;2023-10-19T09:51:25;24.20;32.20
80230;DHT22;69540;42.136;24.742;2023-10-19T09:54:20;24.20;32.10
80230;DHT22;69540;42.136;24.742;2023-10-19T09:56:52;24.20;33.20
80230;DHT22;69540;42.136;24.742;2023-10-19T09:59:37;24.20;32.20
80230;DHT22;69540;42.136;24.742;2023-10-19T10:02:07;24.20;32.10
80230;DHT22;69540;42.136;24.742;2023-10-19T10:04:34;24.20;32.20
80230;DHT22;69540;42.136;24.742;2023-10-19T10:07:05;24.20;32.30
80230;DHT22;69540;42.136;24.742;2023-10-19T10:09:38;24.20;32.30
80230;DHT22;69540;42.136;24.742;2023-10-19T10:12:22;24.20;32.20
80230;DHT22;69540;42.136;24.742;2023-10-19T10:14:56;24.20;32.20
80230;DHT22;69540;42.136;24.742;2023-10-19T10:17:24;24.20;32.30
80230;DHT22;69540;42.136;24.742;2023-10-19T10:19:54;24.20;32.30
80230;DHT22;69540;42.136;24.742;2023-10-19T10:22:22;24.20;32.20
80230;DHT22;69540;42.136;24.742;2023-10-19T10:24:59;24.20;32.20
80230;DHT22;69540;42.136;24.742;2023-10-19T10:27:25;24.20;32.30
80230;DHT22;69540;42.136;24.742;2023-10-19T10:29:58;24.20;32.30
80230;DHT22;69540;42.136;24.742;2023-10-19T10:32:43;24.30;32.30
80230;DHT22;69540;42.136;24.742;2023-10-19T10:35:09;24.20;32.30
80230;DHT22;69540;42.136;24.742;2023-10-19T10:37:38;24.20;32.30
80230;DHT22;69540;42.136;24.742;2023-10-19T10:40:06;24.30;32.40
80230;DHT22;69540;42.136;24.742;2023-10-19T10:42:31;24.20;32.30
80230;DHT22;69540;42.136;24.742;2023-10-19T10:44:59;24.20;32.30
80230;DHT22;69540;42.136;24.742;2023-10-19T10:47:25;24.30;32.30
80230;DHT22;69540;42.136;24.742;2023-10-19T10:49:55;24.30;32.30
80230;DHT22;69540;42.136;24.742;2023-10-19T10:52:35;24.30;32.20
80230;DHT22;69540;42.136;24.742;2023-10-19T10:55:07;24.40;32.30
80230;DHT22;69540;42.136;24.742;2023-10-19T10:57:35;24.30;32.20
80230;DHT22;69540;42.136;24.742;2023-10-19T11:00:09;24.30;32.30
80230;DHT22;69540;42.136;24.742;2023-10-19T11:02:44;24.30;32.30
80230;DHT22;69540;42.136;24.742;2023-10-19T11:05:15;24.30;33.40
80230;DHT22;69540;42.136;24.742;2023-10-19T11:10:35;24.30;32.30
80230;DHT22;69540;42.136;24.742;2023-10-19T11:13:07;24.30;32.30
80230;DHT22;69540;42.136;24.742;2023-10-19T11:15:37;24.30;32.30
80230;DHT22;69540;42.136;24.742;2023-10-19T11:18:04;24.30;32.20
80230;DHT22;69540;42.136;24.742;2023-10-19T11:20:30;24.30;32.20
80230;DHT22;69540;42.136;24.742;2023-10-19T11:22:57;24.30;32.10
80230;DHT22;69540;42.136;24.742;2023-10-19T11:25:27;24.30;32.10
80230;DHT22;69540;42.136;24.742;2023-10-19T11:27:57;24.30;32.00
80230;DHT22;69540;42.136;24.742;2023-10-19T11:30:31;24.40;32.00
80230;DHT22;69540;42.136;24.742;2023-10-19T11:32:57;24.30;31.90
80230;DHT22;69540;42.136;24.742;2023-10-19T11:35:24;24.40;32.00
80230;DHT22;69540;42.136;24.742;2023-10-19T11:37:51;24.30;32.00
80230;DHT22;69540;42.136;24.742;2023-10-19T11:40:23;24.40;32.10
80230;DHT22;69540;42.136;24.742;2023-10-19T11:42:50;24.40;32.10
80230;DHT22;69540;42.136;24.742;2023-10-19T11:45:16;24.30;32.10
80230;DHT22;69540;42.136;24.742;2023-10-19T11:47:45;24.40;32.20
80230;DHT22;69540;42.136;24.742;2023-10-19T11:50:12;24.40;32.10
80230;DHT22;69540;42.136;24.742;2023-10-19T11:52:40;24.40;32.10
80230;DHT22;69540;42.136;24.742;2023-10-19T11:55:06;24.40;32.10
80230;DHT22;69540;42.136;24.742;2023-10-19T11:57:34;24.40;32.10
80230;DHT22;69540;42.136;24.742;2023-10-19T12:00:00;24.40;32.10
80230;DHT22;69540;42.136;24.742;2023-10-19T12:02:26;24.40;32.30
80230;DHT22;69540;42.136;24.742;2023-10-19T12:04:52;24.40;32.20
80230;DHT22;69540;42.136;24.742;2023-10-19T12:07:18;24.40;32.20
80230;DHT22;69540;42.136;24.742;2023-10-19T12:09:44;24.40;32.20
80230;DHT22;69540;42.136;24.742;2023-10-19T12:12:10;24.40;33.30
80230;DHT22;69540;42.136;24.742;2023-10-19T12:14:36;24.40;32.20
80230;DHT22;69540;42.136;24.742;2023-10-19T12:17:02;24.40;32.20
80230;DHT22;69540;42.136;24.742;2023-10-19T12:19:31;24.40;32.20
80230;DHT22;69540;42.136;24.742;2023-10-19T12:21:57;24.40;32.20
80230;DHT22;69540;42.136;24.742;2023-10-19T12:24:23;24.40;32.30
80230;DHT22;69540;42.136;24.742;2023-10-19T12:26:49;24.40;32.20
80230;DHT22;69540;42.136;24.742;2023-10-19T12:29:16;24.40;32.20
80230;DHT22;69540;42.136;24.742;2023-10-19T12:31:46;24.40;32.40
80230;DHT22;69540;42.136;24.742;2023-10-19T12:34:12;24.40;32.40
80230;DHT22;69540;42.136;24.742;2023-10-19T12:36:37;24.40;32.50
80230;DHT22;69540;42.136;24.742;2023-10-19T12:39:04;24.50;32.50
80230;DHT22;69540;42.136;24.742;2023-10-19T12:41:30;24.40;32.50
80230;DHT22;69540;42.136;24.742;2023-10-19T12:43:57;24.50;32.50
80230;DHT22;69540;42.136;24.742;2023-10-19T12:46:26;24.50;32.60
80230;DHT22;69540;42.136;24.742;2023-10-19T12:48:55;24.50;32.50
80230;DHT22;69540;42.136;24.742;2023-10-19T12:51:22;24.50;32.50
80230;DHT22;69540;42.136;24.742;2023-10-19T12:53:54;24.50;32.50
80230;DHT22;69540;42.136;24.742;2023-10-19T12:56:20;24.60;32.50
80230;DHT22;69540;42.136;24.742;2023-10-19T12:58:46;24.60;32.50
80230;DHT22;69540;42.136;24.742;2023-10-19T13:01:14;24.60;32.50
80230;DHT22;69540;42.136;24.742;2023-10-19T13:03:47;24.60;32.50
80230;DHT22;69540;42.136;24.742;2023-10-19T13:06:15;24.60;32.50
80230;DHT22;69540;42.136;24.742;2023-10-19T13:08:41;24.60;32.50
80230;DHT22;69540;42.136;24.742;2023-10-19T13:11:08;24.60;32.40
80230;DHT22;69540;42.136;24.742;2023-10-19T13:13:35;24.60;32.40
80230;DHT22;69540;42.136;24.742;2023-10-19T13:16:02;24.60;32.40
80230;DHT22;69540;42.136;24.742;2023-10-19T13:18:31;24.60;32.40
80230;DHT22;69540;42.136;24.742;2023-10-19T13:20:59;24.70;32.60
80230;DHT22;69540;42.136;24.742;2023-10-19T13:23:32;24.70;32.40
80230;DHT22;69540;42.136;24.742;2023-10-19T13:25:59;24.70;32.40
80230;DHT22;69540;42.136;24.742;2023-10-19T13:28:43;24.70;32.30
80230;DHT22;69540;42.136;24.742;2023-10-19T13:31:09;24.70;32.30
80230;DHT22;69540;42.136;24.742;2023-10-19T13:33:35;24.70;32.30
80230;DHT22;69540;42.136;24.742;2023-10-19T13:36:00;24.70;32.20
80230;DHT22;69540;42.136;24.742;2023-10-19T13:38:26;24.70;32.30
80230;DHT22;69540;42.136;24.742;2023-10-19T13:40:52;24.70;32.30
80230;DHT22;69540;42.136;24.742;2023-10-19T13:43:19;24.70;32.30
80230;DHT22;69540;42.136;24.742;2023-10-19T13:45:46;24.80;33.50
80230;DHT22;69540;42.136;24.742;2023-10-19T13:48:13;24.80;32.40
80230;DHT22;69540;42.136;24.742;2023-10-19T13:50:44;24.80;32.30
80230;DHT22;69540;42.136;24.742;2023-10-19T13:53:11;24.80;32.40
80230;DHT22;69540;42.136;24.742;2023-10-19T13:55:37;24.80;32.50
80230;DHT22;69540;42.136;24.742;2023-10-19T13:58:03;24.80;32.50
80230;DHT22;69540;42.136;24.742;2023-10-19T14:00:28;24.80;32.50
80230;DHT22;69540;42.136;24.742;2023-10-19T14:03:04;24.80;32.50
80230;DHT22;69540;42.136;24.742;2023-10-19T14:05:38;24.80;32.50
80230;DHT22;69540;42.136;24.742;2023-10-19T14:08:06;24.80;32.50
80230;DHT22;69540;42.136;24.742;2023-10-19T14:10:35;24.80;32.40
80230;DHT22;69540;42.136;24.742;2023-10-19T14:13:01;24.80;33.50
80230;DHT22;69540;42.136;24.742;2023-10-19T14:15:27;24.80;32.50
80230;DHT22;69540;42.136;24.742;2023-10-19T14:17:56;24.80;32.50
80230;DHT22;69540;42.136;24.742;2023-10-19T14:20:24;24.80;32.50
80230;DHT22;69540;42.136;24.742;2023-10-19T14:22:50;24.80;33.60
80230;DHT22;69540;42.136;24.742;2023-10-19T14:25:16;24.80;32.60
80230;DHT22;69540;42.136;24.742;2023-10-19T14:27:46;24.80;32.70
80230;DHT22;69540;42.136;24.742;2023-10-19T14:30:18;24.80;32.60
80230;DHT22;69540;42.136;24.742;2023-10-19T14:32:47;24.80;32.60
80230;DHT22;69540;42.136;24.742;2023-10-19T14:35:15;24.80;32.70
80230;DHT22;69540;42.136;24.742;2023-10-19T14:37:43;24.80;32.80
80230;DHT22;69540;42.136;24.742;2023-10-19T14:40:10;24.80;32.70
80230;DHT22;69540;42.136;24.742;2023-10-19T14:42:43;24.80;32.70
80230;DHT22;69540;42.136;24.742;2023-10-19T14:45:14;24.80;32.70
80230;DHT22;69540;42.136;24.742;2023-10-19T14:47:42;24.80;32.80
80230;DHT22;69540;42.136;24.742;2023-10-19T14:50:12;24.80;32.70
80230;DHT22;69540;42.136;24.742;2023-10-19T14:52:40;24.80;32.70
80230;DHT22;69540;42.136;24.742;2023-10-19T14:55:07;24.80;32.70
80230;DHT22;69540;42.136;24.742;2023-10-19T14:57:36;24.70;32.70
80230;DHT22;69540;42.136;24.742;2023-10-19T15:00:06;24.70;32.70
80230;DHT22;69540;42.136;24.742;2023-10-19T15:03:02;24.80;32.80
80230;DHT22;69540;42.136;24.742;2023-10-19T15:05:33;24.70;32.90
80230;DHT22;69540;42.136;24.742;2023-10-19T15:08:04;24.70;32.90
80230;DHT22;69540;42.136;24.742;2023-10-19T15:10:33;24.70;32.90
80230;DHT22;69540;42.136;24.742;2023-10-19T15:12:59;24.70;33.00
80230;DHT22;69540;42.136;24.742;2023-10-19T15:15:26;24.70;33.10
80230;DHT22;69540;42.136;24.742;2023-10-19T15:17:52;24.70;33.10
80230;DHT22;69540;42.136;24.742;2023-10-19T15:20:20;24.70;33.10
80230;DHT22;69540;42.136;24.742;2023-10-19T15:22:47;24.70;34.30
80230;DHT22;69540;42.136;24.742;2023-10-19T15:25:14;24.70;33.60
80230;DHT22;69540;42.136;24.742;2023-10-19T15:27:41;24.70;33.20
80230;DHT22;69540;42.136;24.742;2023-10-19T15:30:08;24.70;34.30